Time;durP1;ratioP1;P1;durP2;ratioP2;P2;SDS_P1;SDS_P2;PMS_P1;PMS_P2;Temp;Humidity;BMP_temperature;BMP_pressure;BME280_temperature;BME280_humidity;BME280_pressure;Samples;Min_cycle;Max_cycle;Signal;HPM_P1;HPM_P2
2022/08/10 00:00:22;;;;;;;818.03;758.83;;;;;;;23.01;44.04;102281.69;687895;28;137582;-58
2022/08/10 00:00:44;;;;;;;814.75;755.45;;;;;;;23.02;43.98;102283.34;688373;28;137680;-59
2022/08/10 00:01:05;;;;;;;816.05;756.83;;;;;;;22.99;44.08;102276.41;692577;28;23480;-59
2022/08/10 00:01:26;;;;;;;825.30;765.90;;;;;;;22.98;44.06;102276.63;692662;28;22374;-60
2022/08/10 00:01:49;;;;;;;831.55;771.95;;;;;;;22.99;44.13;102276.41;691716;28;23409;-60
2022/08/10 00:02:10;;;;;;;832.67;773.00;;;;;;;23.01;44.03;102279.75;692970;28;93025;-60
2022/08/10 00:02:31;;;;;;;827.58;768.13;;;;;;;23.01;44.02;102285.28;689788;28;20098;-60
2022/08/10 00:02:54;;;;;;;826.83;767.25;;;;;;;23.00;44.19;102275.31;690659;28;1282;-60
2022/08/10 00:03:17;;;;;;;828.28;768.67;;;;;;;22.98;44.02;102282.97;685520;28;70199;-60
2022/08/10 00:03:38;;;;;;;828.28;768.78;;;;;;;22.99;44.13;102281.03;686506;28;45276;-59
2022/08/10 00:03:59;;;;;;;830.05;770.45;;;;;;;22.98;43.98;102279.38;686987;28;23472;-60
2022/08/10 00:04:21;;;;;;;836.00;776.20;;;;;;;22.99;43.97;102278.28;688014;28;44041;-60
2022/08/10 00:04:43;;;;;;;835.47;775.67;;;;;;;22.97;44.10;102281.25;692524;28;22406;-60
2022/08/10 00:05:07;;;;;;;835.38;775.50;;;;;;;22.92;44.17;102272.84;691484;28;69381;-60
2022/08/10 00:05:28;;;;;;;828.50;768.90;;;;;;;22.96;44.24;102278.72;693924;28;70676;-60
2022/08/10 00:05:52;;;;;;;835.45;775.65;;;;;;;22.95;44.15;102286.16;695249;28;46352;-59
2022/08/10 00:06:14;;;;;;;837.10;777.22;;;;;;;22.95;44.26;102285.34;692056;28;70199;-60
2022/08/10 00:06:35;;;;;;;837.38;777.58;;;;;;;22.95;44.29;102282.56;697495;28;46392;-60
2022/08/10 00:06:57;;;;;;;823.50;764.00;;;;;;;22.94;44.25;102276.19;696089;28;46755;-58
2022/08/10 00:07:18;;;;;;;829.97;770.20;;;;;;;22.93;44.27;102280.03;693353;28;21337;-58
2022/08/10 00:07:40;;;;;;;826.88;767.33;;;;;;;22.93;44.14;102288.31;692970;28;18518;-59
2022/08/10 00:08:02;;;;;;;824.10;764.58;;;;;;;22.91;44.27;102271.13;692017;28;44276;-56
2022/08/10 00:08:24;;;;;;;833.08;773.38;;;;;;;22.91;44.23;102282.16;691998;28;46413;-59
2022/08/10 00:08:45;;;;;;;836.60;776.70;;;;;;;22.91;44.30;102286.84;691901;28;44388;-59
2022/08/10 00:09:06;;;;;;;829.85;770.15;;;;;;;22.92;44.26;102283.03;689287;28;22182;-60
2022/08/10 00:09:53;;;;;;;826.15;766.55;;;;;;;22.90;44.32;102277.72;689925;28;22221;-60
2022/08/10 00:10:28;;;;;;;809.47;750.38;;;;;;;22.87;44.40;102280.94;680047;28;113784;-60
2022/08/10 00:11:04;;;;;;;815.42;756.13;;;;;;;22.88;44.37;102284.53;684929;28;136749;-59
2022/08/10 00:11:51;;;;;;;812.35;753.15;;;;;;;22.86;44.54;102285.56;691452;28;60165;-59
2022/08/10 00:15:00;;;;;;;825.05;765.53;;;;;;;22.80;44.52;102280.13;691445;28;60146;-60
2022/08/10 00:16:33;;;;;;;829.45;769.80;;;;;;;22.80;44.59;102288.38;685403;28;61531;-59
2022/08/10 00:17:18;;;;;;;822.63;763.03;;;;;;;22.79;44.58;102286.69;671990;28;61845;-59
2022/08/10 00:18:06;;;;;;;830.05;770.35;;;;;;;22.79;44.85;102292.19;693077;28;83566;-60
2022/08/10 00:19:14;;;;;;;826.33;766.88;;;;;;;22.70;44.56;102277.03;694082;28;61663;-60
2022/08/10 00:19:44;;;;;;;834.30;774.55;;;;;;;22.74;44.71;102283.75;691369;28;138682;-59
2022/08/10 00:20:58;;;;;;;830.10;770.50;;;;;;;22.76;44.67;102292.63;694062;28;61730;-59
2022/08/10 00:21:52;;;;;;;828.30;768.70;;;;;;;22.74;44.83;102294.78;672424;28;34176;-59
2022/08/10 00:23:08;;;;;;;820.30;760.95;;;;;;;22.70;44.85;102293.53;694236;28;34755;-59
2022/08/10 00:25:40;;;;;;;821.55;762.13;;;;;;;22.68;45.04;102291.84;696759;28;60037;-60
2022/08/10 00:26:39;;;;;;;807.22;748.22;;;;;;;22.63;44.99;102291.66;687603;28;34405;-60
2022/08/10 00:27:30;;;;;;;816.30;756.90;;;;;;;22.63;45.01;102283.41;673637;28;82422;-60
2022/08/10 00:28:22;;;;;;;816.63;757.33;;;;;;;22.58;45.01;102285.94;682705;28;137492;-58
2022/08/10 00:28:55;;;;;;;828.72;769.03;;;;;;;22.60;45.11;102294.88;683322;28;138594;-58
2022/08/10 00:29:16;;;;;;;821.38;761.88;;;;;;;22.58;45.24;102285.94;688331;28;151949;-55
2022/08/10 00:29:37;;;;;;;817.60;758.30;;;;;;;22.57;45.37;102283.41;691875;28;47209;-53
2022/08/10 00:30:00;;;;;;;823.95;764.38;;;;;;;22.57;45.19;102283.41;695034;28;22545;-53
2022/08/10 00:30:22;;;;;;;821.85;762.45;;;;;;;22.56;45.27;102279.00;696092;28;8245;-55
2022/08/10 00:30:44;;;;;;;819.60;760.28;;;;;;;22.55;45.56;102288.31;694432;28;46567;-53
2022/08/10 00:31:05;;;;;;;828.05;768.50;;;;;;;22.53;45.34;102273.94;695518;28;22119;-53
2022/08/10 00:31:27;;;;;;;815.83;756.63;;;;;;;22.55;45.44;102289.16;695698;28;12033;-56
2022/08/10 00:31:48;;;;;;;817.90;758.47;;;;;;;22.55;45.45;102291.06;693707;28;45311;-56
2022/08/10 00:32:10;;;;;;;825.63;766.10;;;;;;;22.55;45.40;102288.31;695338;28;22407;-56
2022/08/10 00:32:31;;;;;;;827.97;768.40;;;;;;;22.52;45.75;102284.06;695544;28;22462;-53
2022/08/10 00:32:52;;;;;;;826.55;766.95;;;;;;;22.54;45.31;102283.88;693896;28;45477;-54
2022/08/10 00:33:15;;;;;;;822.80;763.35;;;;;;;22.54;45.42;102283.88;695317;28;23561;-57
2022/08/10 00:33:36;;;;;;;817.35;758.05;;;;;;;22.52;45.45;102284.06;696024;28;1066;-54
2022/08/10 00:33:58;;;;;;;818.42;759.00;;;;;;;22.53;45.47;102283.03;695293;28;1020;-59
2022/08/10 00:34:19;;;;;;;826.85;767.30;;;;;;;22.49;45.53;102279.00;695221;28;21580;-55
2022/08/10 00:34:40;;;;;;;823.33;763.83;;;;;;;22.51;45.63;102279.66;695347;28;22397;-55
2022/08/10 00:35:03;;;;;;;825.83;766.28;;;;;;;22.51;45.71;102285.16;694591;28;46421;-55
2022/08/10 00:35:24;;;;;;;814.97;755.67;;;;;;;22.50;45.56;102281.53;694322;28;47191;-57
2022/08/10 00:35:45;;;;;;;815.75;756.55;;;;;;;22.50;45.54;102283.47;692794;28;22174;-56
2022/08/10 00:36:07;;;;;;;820.22;760.83;;;;;;;22.49;45.59;102284.53;691760;28;46313;-55
2022/08/10 00:36:29;;;;;;;822.20;762.80;;;;;;;22.47;45.63;102283.91;694844;28;21551;-57
2022/08/10 00:36:50;;;;;;;830.25;770.55;;;;;;;22.46;45.56;102282.19;693763;28;44178;-55
2022/08/10 00:37:12;;;;;;;830.22;770.45;;;;;;;22.47;45.58;102281.16;694594;28;22248;-55
2022/08/10 00:37:33;;;;;;;825.60;766.00;;;;;;;22.45;45.60;102283.28;691862;28;46115;-53
2022/08/10 00:37:56;;;;;;;825.45;765.88;;;;;;;22.42;45.88;102273.53;692970;28;6030;-55
2022/08/10 00:38:17;;;;;;;825.10;765.50;;;;;;;22.42;45.82;102278.22;688128;28;47455;-52
2022/08/10 00:38:38;;;;;;;832.75;773.03;;;;;;;22.43;45.82;102283.50;685516;28;46401;-59
2022/08/10 00:39:00;;;;;;;838.10;778.13;;;;;;;22.43;45.72;102279.88;687101;28;22380;-59
2022/08/10 00:39:22;;;;;;;828.90;769.30;;;;;;;22.43;45.79;102283.50;689683;28;24372;-59
2022/08/10 00:39:43;;;;;;;832.70;772.97;;;;;;;22.42;45.75;102272.72;689538;28;46297;-58
2022/08/10 00:40:06;;;;;;;837.53;777.63;;;;;;;22.41;45.89;102282.03;692274;28;46362;-59
2022/08/10 00:40:27;;;;;;;828.35;768.70;;;;;;;22.36;45.91;102274.41;695554;28;32527;-58
2022/08/10 00:40:50;;;;;;;828.33;768.72;;;;;;;22.38;45.73;102280.56;697097;28;46331;-60
2022/08/10 00:41:11;;;;;;;824.75;765.17;;;;;;;22.39;45.90;102279.50;696142;28;46295;-59
2022/08/10 00:41:32;;;;;;;834.70;774.92;;;;;;;22.38;45.92;102274.19;695427;28;22510;-58
2022/08/10 00:41:53;;;;;;;837.55;777.65;;;;;;;22.39;45.78;102273.97;694455;28;23528;-59
2022/08/10 00:42:15;;;;;;;834.45;774.65;;;;;;;22.39;45.77;102289.66;694483;28;46340;-58
2022/08/10 00:42:37;;;;;;;840.00;780.10;;;;;;;22.38;46.07;102282.47;695341;28;23533;-57
2022/08/10 00:42:58;;;;;;;832.35;772.65;;;;;;;22.38;45.91;102283.31;690873;28;69686;-58
2022/08/10 00:43:20;;;;;;;834.70;774.90;;;;;;;22.37;45.93;102278.88;692047;28;23181;-58
2022/08/10 00:43:41;;;;;;;824.78;765.22;;;;;;;22.40;45.84;102283.06;692759;28;14813;-58
2022/08/10 00:44:04;;;;;;;827.95;768.35;;;;;;;22.37;45.88;102273.38;692528;28;19179;-59
2022/08/10 00:44:25;;;;;;;844.30;784.28;;;;;;;22.38;45.91;102279.72;691870;28;41810;-58
2022/08/10 00:44:48;;;;;;;852.20;791.92;;;;;;;22.38;45.77;102283.31;692959;28;21280;-60
2022/08/10 00:45:11;;;;;;;843.30;783.30;;;;;;;22.37;46.01;102278.03;692958;28;92272;-59
2022/08/10 00:45:34;;;;;;;839.25;779.35;;;;;;;22.36;45.89;102282.69;693814;28;69324;-59
2022/08/10 00:45:55;;;;;;;838.40;778.50;;;;;;;22.36;45.97;102282.69;694681;28;46120;-60
2022/08/10 00:46:16;;;;;;;845.50;785.45;;;;;;;22.37;45.80;102281.63;695498;28;21260;-59
2022/08/10 00:46:37;;;;;;;830.72;771.15;;;;;;;22.36;46.16;102285.44;695302;28;22176;-59
2022/08/10 00:46:59;;;;;;;830.35;770.60;;;;;;;22.35;45.84;102278.25;694575;28;9498;-59
2022/08/10 00:47:22;;;;;;;853.50;793.10;;;;;;;22.31;46.16;102271.50;693518;28;67051;-58
2022/08/10 00:47:43;;;;;;;834.17;774.40;;;;;;;22.30;46.16;102287.16;694400;28;45379;-57
2022/08/10 00:48:05;;;;;;;832.08;772.30;;;;;;;22.30;46.02;102281.66;695185;28;12778;-57
2022/08/10 00:48:28;;;;;;;830.88;771.13;;;;;;;22.29;46.09;102277.19;695317;28;3344;-59
2022/08/10 00:48:50;;;;;;;819.85;760.45;;;;;;;22.28;46.16;102280.16;693418;28;67490;-58
2022/08/10 00:49:11;;;;;;;822.15;762.65;;;;;;;22.29;46.34;102279.09;694506;28;46308;-60
2022/08/10 00:49:34;;;;;;;833.05;773.28;;;;;;;22.24;46.35;102282.50;696208;28;925;-58
2022/08/10 00:49:55;;;;;;;829.08;769.47;;;;;;;22.23;46.43;102279.97;694573;28;45241;-58
2022/08/10 00:50:17;;;;;;;825.05;765.55;;;;;;;22.24;46.59;102284.38;695502;28;21546;-58
2022/08/10 00:50:40;;;;;;;819.70;760.30;;;;;;;22.24;46.28;102270.63;694497;28;46430;-57
2022/08/10 00:51:01;;;;;;;826.88;767.17;;;;;;;22.23;46.36;102269.78;693544;28;69257;-52
2022/08/10 00:51:22;;;;;;;828.60;768.95;;;;;;;22.24;46.38;102279.75;695289;28;22394;-53
2022/08/10 00:51:44;;;;;;;826.43;766.83;;;;;;;22.24;46.45;102279.75;693842;28;46588;-54
2022/08/10 00:52:07;;;;;;;828.88;769.17;;;;;;;22.25;46.35;102280.59;694546;28;44451;-55
2022/08/10 00:52:29;;;;;;;833.17;773.38;;;;;;;22.25;46.42;102275.91;693770;28;69498;-55
2022/08/10 00:52:50;;;;;;;832.70;772.88;;;;;;;22.25;46.32;102275.91;694276;28;46356;-53
2022/08/10 00:53:12;;;;;;;831.38;771.65;;;;;;;22.26;46.42;102274.03;694616;28;44048;-53
2022/08/10 00:53:34;;;;;;;821.72;762.15;;;;;;;22.24;46.40;102273.38;695331;28;22417;-57
2022/08/10 00:53:55;;;;;;;825.17;765.47;;;;;;;22.25;46.03;102273.16;694557;28;46404;-55
2022/08/10 00:54:16;;;;;;;819.38;759.95;;;;;;;22.26;46.40;102280.38;695340;28;21548;-55
2022/08/10 00:54:39;;;;;;;827.20;767.60;;;;;;;22.27;46.34;102268.31;695525;28;21522;-57
2022/08/10 00:55:02;;;;;;;818.42;758.95;;;;;;;22.26;46.32;102268.53;693546;28;69455;-54
2022/08/10 00:55:24;;;;;;;827.58;767.88;;;;;;;22.29;46.38;102274.44;694164;28;44849;-55
2022/08/10 00:55:45;;;;;;;825.03;765.50;;;;;;;22.29;46.32;102270.84;694224;28;46485;-52
2022/08/10 00:56:06;;;;;;;822.72;763.28;;;;;;;22.28;46.35;102275.47;695188;28;22390;-55
2022/08/10 00:56:28;;;;;;;822.08;762.67;;;;;;;22.28;46.27;102275.47;694435;28;46322;-56
2022/08/10 00:56:50;;;;;;;818.70;759.40;;;;;;;22.29;46.25;102273.59;694320;28;21523;-55
2022/08/10 00:57:13;;;;;;;825.47;765.70;;;;;;;22.28;46.27;102271.88;693680;28;44422;-53
2022/08/10 00:57:34;;;;;;;818.28;758.88;;;;;;;22.28;46.31;102264.47;693579;28;69979;-56
2022/08/10 00:57:55;;;;;;;812.63;753.47;;;;;;;22.28;46.36;102275.47;695230;28;23422;-54
2022/08/10 00:58:18;;;;;;;808.00;749.00;;;;;;;22.28;46.34;102272.72;695220;28;23524;-58
2022/08/10 00:58:39;;;;;;;807.70;748.70;;;;;;;22.27;46.48;102270.19;693656;28;69420;-56
2022/08/10 00:59:00;;;;;;;804.88;745.95;;;;;;;22.26;46.26;102274.88;695409;28;22372;-54
2022/08/10 00:59:22;;;;;;;806.83;747.83;;;;;;;22.27;46.41;102265.56;695291;28;22437;-54
2022/08/10 00:59:43;;;;;;;804.25;745.28;;;;;;;22.27;46.40;102271.06;694565;28;47463;-52
2022/08/10 01:00:08;;;;;;;796.13;737.42;;;;;;;22.28;46.68;102267.22;694544;28;44386;-56
2022/08/10 01:00:30;;;;;;;796.55;737.85;;;;;;;22.30;46.20;102265.16;693047;28;92299;-55
2022/08/10 01:00:52;;;;;;;796.75;737.95;;;;;;;22.32;46.38;102264.94;693803;28;69328;-55
2022/08/10 01:01:13;;;;;;;804.22;745.25;;;;;;;22.34;46.27;102259.22;694575;28;45213;-55
2022/08/10 01:01:35;;;;;;;795.38;736.67;;;;;;;22.35;46.10;102258.13;695281;28;23342;-54
2022/08/10 01:01:57;;;;;;;803.92;745.03;;;;;;;22.37;46.24;102264.28;693859;28;47656;-56
2022/08/10 01:02:18;;;;;;;803.83;745.05;;;;;;;22.38;46.25;102271.44;694610;28;46339;-53
2022/08/10 01:02:40;;;;;;;803.40;744.60;;;;;;;22.36;45.93;102262.56;695174;28;22409;-56
2022/08/10 01:03:02;;;;;;;808.13;749.05;;;;;;;22.37;46.10;102262.34;694581;28;46292;-56
2022/08/10 01:03:23;;;;;;;800.42;741.67;;;;;;;22.37;46.22;102261.53;694436;28;45272;-55
2022/08/10 01:03:44;;;;;;;801.28;742.45;;;;;;;22.37;46.28;102261.53;695337;28;22327;-54
2022/08/10 01:04:06;;;;;;;809.03;750.00;;;;;;;22.38;46.18;102265.94;695319;28;22293;-54
2022/08/10 01:04:28;;;;;;;782.28;724.20;;;;;;;22.37;46.34;102259.59;693302;28;885;-55
2022/08/10 01:04:50;;;;;;;793.13;734.78;;;;;;;22.37;46.16;102262.34;692244;28;22389;-51
2022/08/10 01:05:13;;;;;;;791.63;733.33;;;;;;;22.37;46.14;102258.78;692151;28;23774;-51
2022/08/10 01:05:37;;;;;;;789.90;731.63;;;;;;;22.36;46.12;102257.06;688644;28;116206;-52
2022/08/10 01:06:00;;;;;;;816.53;757.37;;;;;;;22.38;46.24;102260.44;689949;28;92781;-55
2022/08/10 01:06:28;;;;;;;816.13;756.92;;;;;;;22.31;46.13;102253.06;691717;28;92363;-53
2022/08/10 01:07:04;;;;;;;807.72;748.63;;;;;;;22.37;46.08;102265.09;692957;28;61424;-55
2022/08/10 01:07:38;;;;;;;814.25;754.90;;;;;;;22.37;46.25;102262.34;688969;28;136095;-56
2022/08/10 01:08:11;;;;;;;808.30;749.20;;;;;;;22.37;46.24;102251.34;688575;28;137747;-55
2022/08/10 01:08:36;;;;;;;804.55;745.65;;;;;;;22.37;46.26;102261.53;688725;28;137418;-56
2022/08/10 01:09:01;;;;;;;801.42;742.42;;;;;;;22.36;46.11;102257.91;689345;28;116296;-55
2022/08/10 01:09:29;;;;;;;796.47;737.67;;;;;;;22.33;46.13;102255.59;689422;28;115320;-55
2022/08/10 01:09:58;;;;;;;801.75;742.85;;;;;;;22.30;46.41;102247.78;685674;28;135932;-57
2022/08/10 01:10:28;;;;;;;793.45;734.70;;;;;;;22.31;46.44;102258.56;683038;28;138350;-55
2022/08/10 01:10:58;;;;;;;798.33;739.45;;;;;;;22.30;46.43;102256.91;684264;28;138930;-56
2022/08/10 01:11:26;;;;;;;785.00;726.50;;;;;;;22.31;46.42;102249.47;679978;28;136542;-55
2022/08/10 01:11:52;;;;;;;795.88;737.13;;;;;;;22.31;46.31;102255.81;682424;28;158925;-54
2022/08/10 01:12:15;;;;;;;794.88;736.15;;;;;;;22.32;46.37;102256.69;685556;28;138083;-57
2022/08/10 01:12:43;;;;;;;793.42;734.75;;;;;;;22.31;46.40;102249.47;688157;28;69458;-56
2022/08/10 01:13:09;;;;;;;797.35;738.55;;;;;;;22.33;46.38;102252.00;683364;28;136356;-56
2022/08/10 01:13:38;;;;;;;792.45;733.75;;;;;;;22.31;46.34;102249.47;688613;28;137231;-56
2022/08/10 01:14:04;;;;;;;780.05;721.67;;;;;;;22.30;46.22;102251.38;689493;28;160909;-53
2022/08/10 01:14:28;;;;;;;787.72;729.22;;;;;;;22.30;46.38;102243.13;691470;28;136098;-54
2022/08/10 01:14:55;;;;;;;782.15;723.80;;;;;;;22.29;46.26;102252.41;692815;28;90696;-56
2022/08/10 01:15:24;;;;;;;786.78;728.25;;;;;;;22.28;46.43;102256.22;691347;28;136483;-55
2022/08/10 01:15:53;;;;;;;787.25;728.70;;;;;;;22.29;46.41;102251.56;690334;28;160671;-52
2022/08/10 01:16:17;;;;;;;787.58;728.97;;;;;;;22.28;46.49;102250.72;691318;28;138532;-57
2022/08/10 01:16:46;;;;;;;782.75;724.38;;;;;;;22.27;46.59;102253.69;691296;28;114885;-54
2022/08/10 01:17:12;;;;;;;796.17;737.20;;;;;;;22.23;46.57;102253.28;690850;28;136249;-56
2022/08/10 01:17:39;;;;;;;792.97;734.17;;;;;;;22.23;46.62;102252.44;691235;28;137292;-52
2022/08/10 01:18:03;;;;;;;800.85;741.95;;;;;;;22.22;46.89;102256.25;691061;28;136339;-58
2022/08/10 01:18:38;;;;;;;799.38;740.55;;;;;;;22.21;46.61;102252.66;693019;28;90116;-52
2022/08/10 01:19:04;;;;;;;795.53;736.78;;;;;;;22.20;46.82;102250.13;691226;28;137295;-56
2022/08/10 01:19:47;;;;;;;795.88;737.17;;;;;;;22.19;46.78;102256.69;692987;28;83303;-51
2022/08/10 01:20:14;;;;;;;795.88;737.08;;;;;;;22.19;46.83;102251.19;688533;28;135391;-53
2022/08/10 01:20:39;;;;;;;799.15;740.28;;;;;;;22.19;46.83;102251.19;688636;28;137902;-55
2022/08/10 01:21:24;;;;;;;788.67;730.07;;;;;;;22.19;46.65;102253.94;689476;28;115122;-55
2022/08/10 01:22:05;;;;;;;797.13;738.28;;;;;;;22.19;46.66;102251.19;679342;28;138800;-52
2022/08/10 01:22:43;;;;;;;798.38;739.58;;;;;;;22.19;46.90;102251.19;686408;28;130841;-53
2022/08/10 01:23:49;;;;;;;789.70;730.97;;;;;;;22.19;46.69;102253.94;688485;28;138567;-55
2022/08/10 01:24:37;;;;;;;785.92;727.33;;;;;;;22.18;46.74;102253.09;680007;28;137795;-56
2022/08/10 01:25:09;;;;;;;795.58;736.47;;;;;;;22.17;46.85;102256.91;687690;28;137342;-58
2022/08/10 01:25:45;;;;;;;798.22;739.13;;;;;;;22.16;46.81;102249.69;689834;28;113479;-58
2022/08/10 01:26:40;;;;;;;787.67;729.08;;;;;;;22.14;46.79;102249.91;689816;28;137547;-59
2022/08/10 01:27:18;;;;;;;795.10;736.20;;;;;;;22.14;46.76;102252.66;687845;28;180314;-59
2022/08/10 01:27:47;;;;;;;791.33;732.60;;;;;;;22.13;47.11;102248.25;691035;28;138424;-58
2022/08/10 01:28:19;;;;;;;790.70;732.05;;;;;;;22.13;46.79;102252.88;690430;28;138843;-59
2022/08/10 01:28:53;;;;;;;791.80;733.15;;;;;;;22.12;46.87;102245.72;693538;28;60860;-59
2022/08/10 01:29:40;;;;;;;781.90;723.40;;;;;;;22.12;46.88;102251.22;688944;28;137801;-59
2022/08/10 01:30:06;;;;;;;792.38;733.67;;;;;;;22.09;47.13;102246.16;688257;28;138685;-58
2022/08/10 01:30:29;;;;;;;798.70;739.90;;;;;;;22.09;47.07;102251.66;689090;28;113582;-58
2022/08/10 01:30:53;;;;;;;798.30;739.45;;;;;;;22.08;46.97;102250.78;692389;28;68985;-57
2022/08/10 01:31:19;;;;;;;785.58;727.08;;;;;;;22.08;46.98;102252.69;693040;28;92307;-59
2022/08/10 01:31:43;;;;;;;787.67;729.03;;;;;;;22.07;47.14;102248.25;687142;28;161995;-58
2022/08/10 01:32:06;;;;;;;792.38;733.70;;;;;;;22.03;47.19;102252.53;690024;28;93319;-58
2022/08/10 01:32:43;;;;;;;788.72;730.05;;;;;;;22.01;47.16;102258.25;690102;28;90436;-59
2022/08/10 01:33:09;;;;;;;786.15;727.55;;;;;;;21.99;47.20;102256.75;690142;28;138385;-59
2022/08/10 01:33:34;;;;;;;791.65;733.00;;;;;;;21.96;47.45;102258.06;691318;28;138158;-59
2022/08/10 01:33:58;;;;;;;792.03;733.33;;;;;;;21.94;47.43;102262.91;692105;28;115242;-59
2022/08/10 01:34:22;;;;;;;796.03;737.25;;;;;;;21.94;47.47;102257.41;692560;28;90754;-58
2022/08/10 01:34:49;;;;;;;802.88;743.97;;;;;;;21.92;47.61;102254.88;692753;28;90491;-59
2022/08/10 01:35:13;;;;;;;796.70;737.90;;;;;;;21.93;47.50;102264.00;691049;28;136372;-58
2022/08/10 01:35:38;;;;;;;801.85;742.85;;;;;;;21.94;47.49;102257.41;692714;28;90732;-59
2022/08/10 01:36:05;;;;;;;805.63;746.63;;;;;;;21.94;47.34;102254.66;692090;28;115360;-58
2022/08/10 01:36:30;;;;;;;795.97;737.17;;;;;;;21.92;47.44;102260.38;690541;28;160960;-59
2022/08/10 01:36:53;;;;;;;796.25;737.35;;;;;;;21.88;47.29;102250.00;690833;28;114839;-59
2022/08/10 01:37:17;;;;;;;794.65;735.83;;;;;;;21.90;47.52;102257.00;693344;28;68690;-59
2022/08/10 01:37:44;;;;;;;791.92;733.25;;;;;;;21.89;47.53;102255.28;693035;28;92287;-58
2022/08/10 01:38:10;;;;;;;791.38;732.72;;;;;;;21.89;47.50;102258.03;690453;28;161651;-58
2022/08/10 01:38:33;;;;;;;783.97;725.53;;;;;;;21.88;47.72;102255.50;691349;28;137615;-58
2022/08/10 01:38:56;;;;;;;792.28;733.47;;;;;;;21.89;47.51;102252.56;690250;28;67874;-57
2022/08/10 01:39:22;;;;;;;790.53;731.88;;;;;;;21.87;47.63;102254.69;689998;28;92119;-57
2022/08/10 01:39:46;;;;;;;799.90;740.95;;;;;;;21.89;47.58;102259.97;689172;28;115013;-59
2022/08/10 01:40:12;;;;;;;793.47;734.70;;;;;;;21.88;47.50;102261.00;689894;28;92232;-58
2022/08/10 01:40:36;;;;;;;798.40;739.60;;;;;;;21.89;47.67;102259.97;688347;28;138226;-57
2022/08/10 01:41:02;;;;;;;799.08;740.17;;;;;;;21.89;47.67;102249.78;692258;28;90479;-60
2022/08/10 01:41:28;;;;;;;806.60;747.53;;;;;;;21.88;47.64;102256.38;691362;28;137778;-58
2022/08/10 01:41:54;;;;;;;803.25;744.22;;;;;;;21.87;47.42;102257.44;690474;28;137624;-59
2022/08/10 01:42:17;;;;;;;810.45;751.15;;;;;;;21.87;47.57;102256.59;690419;28;138144;-58
2022/08/10 01:42:41;;;;;;;813.30;754.00;;;;;;;21.87;47.90;102254.69;693999;28;92061;-58
2022/08/10 01:43:06;;;;;;;808.42;749.22;;;;;;;21.86;47.59;102254.91;696180;28;66632;-58
2022/08/10 01:43:29;;;;;;;805.05;746.05;;;;;;;21.86;47.73;102257.66;694889;28;115307;-55
2022/08/10 01:43:55;;;;;;;806.53;747.42;;;;;;;21.86;47.71;102257.66;695543;28;92062;-59
2022/08/10 01:44:22;;;;;;;804.33;745.33;;;;;;;21.84;47.66;102255.09;693210;28;113837;-60
2022/08/10 01:44:47;;;;;;;797.17;738.38;;;;;;;21.85;47.75;102261.44;691248;28;138041;-56
2022/08/10 01:45:13;;;;;;;801.47;742.40;;;;;;;21.82;47.88;102257.25;691147;28;136457;-60
2022/08/10 01:45:36;;;;;;;805.38;746.30;;;;;;;21.82;47.79;102262.75;691713;28;115695;-58
2022/08/10 01:45:59;;;;;;;801.97;743.00;;;;;;;21.75;47.86;102245.41;693582;28;69593;-59
2022/08/10 01:46:23;;;;;;;800.85;741.85;;;;;;;21.83;47.75;102253.41;693754;28;69445;-60
2022/08/10 01:46:47;;;;;;;795.60;736.80;;;;;;;21.82;47.78;102254.50;694725;28;15101;-60
2022/08/10 01:48:36;;;;;;;796.70;737.90;;;;;;;21.80;47.81;102255.75;688491;28;137554;-60
2022/08/10 01:48:59;;;;;;;802.40;743.38;;;;;;;21.79;47.89;102252.16;689254;28;114432;-58
2022/08/10 01:49:22;;;;;;;802.97;743.97;;;;;;;21.78;47.96;102256.81;693621;28;69836;-58
2022/08/10 01:49:45;;;;;;;797.90;739.00;;;;;;;21.77;47.79;102249.63;693586;28;69395;-56
2022/08/10 01:50:12;;;;;;;795.83;737.03;;;;;;;21.76;47.92;102258.94;693737;28;67410;-51
2022/08/10 01:50:39;;;;;;;799.63;740.67;;;;;;;21.73;48.12;102250.28;691368;28;137872;-55
2022/08/10 01:51:06;;;;;;;796.45;737.60;;;;;;;21.72;48.07;102257.69;691198;28;137938;-53
2022/08/10 01:51:38;;;;;;;808.65;749.45;;;;;;;21.70;48.16;102253.47;690884;28;137631;-58
2022/08/10 01:52:00;;;;;;;809.70;750.50;;;;;;;21.70;48.16;102254.28;690431;28;135400;-56
2022/08/10 01:52:23;;;;;;;811.10;751.90;;;;;;;21.70;48.11;102253.47;694408;28;46564;-51
2022/08/10 01:52:46;;;;;;;823.13;763.58;;;;;;;21.69;48.26;102251.75;693435;28;69474;-54
2022/08/10 01:53:11;;;;;;;826.13;766.50;;;;;;;21.69;48.34;102249.00;693734;28;69443;-56
2022/08/10 01:53:35;;;;;;;829.70;769.90;;;;;;;21.65;48.38;102248.59;692046;28;115039;-55
2022/08/10 01:54:00;;;;;;;833.95;774.03;;;;;;;21.67;48.08;102251.13;692587;28;92514;-55
2022/08/10 01:54:23;;;;;;;823.70;764.15;;;;;;;21.67;48.34;102256.63;692206;28;115171;-55
2022/08/10 01:54:45;;;;;;;810.67;751.47;;;;;;;21.67;48.11;102253.88;693410;28;67601;-54
2022/08/10 01:55:08;;;;;;;817.80;758.30;;;;;;;21.66;48.34;102252.19;694345;28;45211;-55
2022/08/10 01:55:30;;;;;;;817.55;758.15;;;;;;;21.63;48.40;102247.97;689077;28;69865;-55
2022/08/10 01:55:53;;;;;;;828.28;768.58;;;;;;;21.63;48.34;102252.63;691559;28;44437;-56
2022/08/10 01:56:16;;;;;;;822.63;763.13;;;;;;;21.59;48.57;102249.47;690754;28;69727;-56
2022/08/10 01:56:39;;;;;;;820.05;760.70;;;;;;;21.58;48.78;102253.25;690340;28;69444;-59
2022/08/10 01:57:01;;;;;;;831.22;771.35;;;;;;;21.57;48.60;102252.41;688405;28;90123;-56
2022/08/10 01:57:23;;;;;;;846.40;786.20;;;;;;;21.55;48.57;102248.19;692507;28;46341;-56
2022/08/10 01:57:49;;;;;;;835.30;775.40;;;;;;;21.56;48.82;102258.97;692045;28;113541;-57
2022/08/10 01:58:11;;;;;;;836.88;777.03;;;;;;;21.55;48.51;102251.81;693690;28;69408;-53
2022/08/10 01:58:34;;;;;;;840.05;780.15;;;;;;;21.55;48.54;102250.94;694452;28;44024;-55
2022/08/10 01:58:58;;;;;;;845.70;785.50;;;;;;;21.57;48.65;102259.84;693591;28;67487;-56
2022/08/10 01:59:22;;;;;;;849.53;789.30;;;;;;;21.54;48.45;102246.50;692860;28;90379;-59
2022/08/10 01:59:47;;;;;;;850.72;790.47;;;;;;;21.53;48.63;102245.66;691066;28;138207;-51
2022/08/10 02:00:09;;;;;;;849.22;789.03;;;;;;;21.52;48.62;102248.59;691923;28;115294;-55
2022/08/10 02:00:32;;;;;;;856.78;796.35;;;;;;;21.53;48.73;102247.56;694513;28;46503;-58
2022/08/10 02:00:54;;;;;;;855.03;794.60;;;;;;;21.52;48.48;102246.72;693434;28;69139;-59
2022/08/10 02:01:20;;;;;;;861.30;800.67;;;;;;;21.50;48.62;102248.81;694576;28;46320;-58
2022/08/10 02:01:43;;;;;;;848.67;788.38;;;;;;;21.49;48.73;102243.53;690375;28;137879;-60
2022/08/10 02:02:07;;;;;;;846.15;785.85;;;;;;;21.48;48.52;102244.59;693602;28;67415;-59
2022/08/10 02:02:30;;;;;;;860.95;800.33;;;;;;;21.48;48.75;102244.59;694867;28;37818;-59
2022/08/10 02:02:52;;;;;;;862.33;801.55;;;;;;;21.45;48.99;102248.59;693947;28;45362;-60
2022/08/10 02:03:15;;;;;;;846.88;786.58;;;;;;;21.41;48.90;102244.56;694516;28;44295;-59
2022/08/10 02:03:37;;;;;;;847.45;787.15;;;;;;;21.38;48.89;102245.03;693206;28;67501;-60